Time;durP1;ratioP1;P1;durP2;ratioP2;P2;SDS_P1;SDS_P2;PMS_P1;PMS_P2;Temp;Humidity;BMP_temperature;BMP_pressure;BME280_temperature;BME280_humidity;BME280_pressure;Samples;Min_cycle;Max_cycle;Signal;HPM_P1;HPM_P2
2022/05/03 00:00:55;;;;;;;7.35;4.75;;;;;;;14.29;61.88;101255.16;5014332;28;101766;-48
2022/05/03 00:03:27;;;;;;;5.25;4.45;;;;;;;14.28;62.15;101264.47;4993853;28;102066;-47
2022/05/03 00:06:07;;;;;;;5.07;4.57;;;;;;;14.29;61.85;101266.13;4995130;28;102636;-47
2022/05/03 00:08:40;;;;;;;5.15;4.18;;;;;;;14.29;62.13;101266.13;4993112;28;103828;-46
2022/05/03 00:11:12;;;;;;;4.78;4.20;;;;;;;14.28;62.13;101253.50;4994340;28;102004;-47
2022/05/03 00:13:45;;;;;;;5.32;4.18;;;;;;;14.29;62.15;101271.59;4997406;28;101897;-46
2022/05/03 00:16:13;;;;;;;5.38;4.05;;;;;;;14.28;62.06;101257.09;5014643;28;102566;-47
2022/05/03 00:18:42;;;;;;;6.50;3.97;;;;;;;14.28;62.08;101253.50;5012802;28;103891;-47
2022/05/03 00:21:10;;;;;;;5.27;4.53;;;;;;;14.27;61.74;101258.16;5014034;28;102474;-46
2022/05/03 00:23:38;;;;;;;5.13;4.13;;;;;;;14.27;62.06;101258.16;5000147;28;102559;-49
2022/05/03 00:26:05;;;;;;;5.18;4.15;;;;;;;14.27;62.19;101255.44;4994823;28;102082;-46
2022/05/03 00:28:34;;;;;;;6.22;4.55;;;;;;;14.28;61.91;101258.97;4992417;28;103850;-48
2022/05/03 00:31:02;;;;;;;4.80;4.30;;;;;;;14.27;61.98;101265.56;5012525;28;102169;-47
2022/05/03 00:33:32;;;;;;;5.35;4.30;;;;;;;14.27;62.22;101260.09;5011655;28;103513;-47
2022/05/03 00:35:59;;;;;;;5.57;4.38;;;;;;;14.27;61.91;101257.34;5014450;28;102270;-47
2022/05/03 00:38:25;;;;;;;4.40;4.00;;;;;;;14.27;61.85;101258.16;5012309;28;103902;-47
2022/05/03 00:40:56;;;;;;;5.75;4.60;;;;;;;14.27;61.96;101254.63;5012051;28;102880;-47
2022/05/03 00:43:31;;;;;;;5.28;4.75;;;;;;;14.26;61.79;101258.47;5001261;28;102534;-44
2022/05/03 00:46:01;;;;;;;5.05;4.10;;;;;;;14.26;62.12;101256.53;5007576;28;102039;-46
2022/05/03 00:48:44;;;;;;;5.25;4.63;;;;;;;14.26;62.16;101266.69;5010910;27;103707;-47
2022/05/03 00:51:15;;;;;;;9.95;4.38;;;;;;;14.27;61.95;101262.81;5013307;28;101877;-47
2022/05/03 00:53:57;;;;;;;4.97;4.47;;;;;;;14.26;62.17;101272.97;5006895;28;102122;-47
2022/05/03 00:56:45;;;;;;;5.35;4.22;;;;;;;14.25;62.08;101265.88;5001724;28;101992;-46
2022/05/03 00:59:25;;;;;;;6.50;4.13;;;;;;;14.26;62.13;101272.16;4992451;28;103947;-47
2022/05/03 01:01:57;;;;;;;6.85;4.43;;;;;;;14.25;62.23;101263.13;5004858;28;102402;-46
2022/05/03 01:04:32;;;;;;;4.88;3.97;;;;;;;14.26;62.07;101256.53;5012505;28;101953;-47
2022/05/03 01:07:13;;;;;;;8.77;4.53;;;;;;;14.25;62.31;101254.09;4996945;28;101977;-47
2022/05/03 01:09:41;;;;;;;5.22;4.13;;;;;;;14.26;62.22;101258.47;4994764;28;103778;-48
2022/05/03 01:12:23;;;;;;;4.53;4.13;;;;;;;14.25;62.09;101254.91;4993435;28;101997;-46
2022/05/03 01:15:06;;;;;;;5.43;4.72;;;;;;;14.26;62.43;101255.72;4992311;28;102054;-47
2022/05/03 01:17:43;;;;;;;5.55;4.13;;;;;;;14.26;62.19;101263.94;4993774;28;102581;-47
2022/05/03 01:20:15;;;;;;;4.93;4.35;;;;;;;14.26;62.39;101250.25;4992373;28;103967;-47
2022/05/03 01:23:17;;;;;;;5.07;4.57;;;;;;;14.26;62.27;101255.72;4993363;28;102296;-46
2022/05/03 01:26:06;;;;;;;4.88;4.05;;;;;;;14.25;62.28;101254.09;4991868;28;101994;-48
2022/05/03 01:28:54;;;;;;;5.93;4.57;;;;;;;14.25;62.27;101254.09;4998517;28;102264;-47
2022/05/03 01:31:23;;;;;;;4.90;4.03;;;;;;;14.25;62.59;101259.56;5011541;28;103809;-47
2022/05/03 01:33:50;;;;;;;5.28;4.20;;;;;;;14.24;62.46;101252.44;5009652;28;101986;-47
2022/05/03 01:36:27;;;;;;;4.72;4.05;;;;;;;14.24;62.37;101249.69;4992315;28;102397;-46
2022/05/03 01:39:02;;;;;;;4.85;4.32;;;;;;;14.25;62.40;101248.63;4993468;28;101952;-47
2022/05/03 01:41:39;;;;;;;6.13;4.60;;;;;;;14.25;62.22;101254.09;4991821;28;104015;-47
2022/05/03 01:44:18;;;;;;;4.82;4.13;;;;;;;14.25;62.62;101254.09;4991634;28;102067;-48
2022/05/03 01:46:54;;;;;;;4.93;4.43;;;;;;;14.24;62.48;101247.78;5003453;28;102045;-47
2022/05/03 01:52:34;;;;;;;5.97;4.40;;;;;;;14.24;62.52;101247.78;5012205;28;103858;-47
2022/05/03 01:55:19;;;;;;;5.65;4.38;;;;;;;14.24;62.55;101252.44;5012524;28;101915;-46
2022/05/03 01:57:59;;;;;;;4.97;4.47;;;;;;;14.24;62.53;101246.97;4997112;28;101880;-46
2022/05/03 02:00:28;;;;;;;4.68;4.18;;;;;;;14.24;62.59;101246.97;5010589;28;101923;-47
2022/05/03 02:03:03;;;;;;;5.07;4.55;;;;;;;14.24;62.56;101245.03;5011418;28;103682;-47
2022/05/03 02:05:53;;;;;;;4.88;4.38;;;;;;;14.24;62.80;101249.69;5012192;28;102312;-47
2022/05/03 02:08:21;;;;;;;4.88;4.38;;;;;;;14.25;62.78;101248.63;4997723;28;102180;-48
2022/05/03 02:11:01;;;;;;;5.03;4.53;;;;;;;14.24;62.61;101253.25;4995458;28;102281;-47
2022/05/03 02:16:58;;;;;;;5.85;4.97;;;;;;;14.25;62.68;101256.84;5008550;28;101896;-48
2022/05/03 02:19:56;;;;;;;5.53;4.57;;;;;;;14.24;62.70;101263.38;5011087;28;102307;-48
2022/05/03 02:22:47;;;;;;;6.90;4.25;;;;;;;14.24;62.76;101260.66;5012254;28;102103;-47
2022/05/03 02:25:24;;;;;;;6.15;4.82;;;;;;;14.24;62.94;101263.38;5009743;28;104382;-47
2022/05/03 02:28:02;;;;;;;4.70;3.70;;;;;;;14.25;62.86;101270.53;5011182;28;102290;-47
2022/05/03 02:30:31;;;;;;;5.95;4.53;;;;;;;14.24;62.79;101271.59;5011290;28;101911;-47
2022/05/03 02:33:09;;;;;;;4.38;3.97;;;;;;;14.24;63.06;101260.66;5012643;28;102340;-46
2022/05/03 02:35:36;;;;;;;4.90;4.40;;;;;;;14.24;63.04;101263.38;4994785;28;103960;-47
2022/05/03 02:38:05;;;;;;;5.35;4.28;;;;;;;14.24;62.93;101263.38;4991697;28;101907;-45
2022/05/03 02:40:33;;;;;;;5.40;4.28;;;;;;;14.24;63.21;101268.88;4995161;28;102299;-48
2022/05/03 02:43:00;;;;;;;4.27;3.87;;;;;;;14.25;63.01;101281.47;4998943;28;104033;-46
2022/05/03 02:45:30;;;;;;;5.30;4.45;;;;;;;14.24;62.92;101285.28;4998766;28;104040;-45
2022/05/03 02:48:08;;;;;;;4.97;4.47;;;;;;;14.25;62.88;101284.22;5010737;28;102307;-47
2022/05/03 02:50:44;;;;;;;4.88;4.32;;;;;;;14.23;62.88;101283.66;5011132;28;102244;-48
2022/05/03 02:53:23;;;;;;;5.05;4.55;;;;;;;14.24;62.90;101282.56;5010533;28;101993;-48
2022/05/03 02:55:51;;;;;;;4.80;4.37;;;;;;;14.25;62.86;101286.94;4990817;28;103872;-46
2022/05/03 02:58:37;;;;;;;6.43;4.45;;;;;;;14.24;63.01;101279.81;5005156;28;102011;-47
2022/05/03 03:04:04;;;;;;;6.07;4.60;;;;;;;14.24;62.94;101277.06;4998267;28;102188;-46
2022/05/03 03:06:33;;;;;;;4.93;4.40;;;;;;;14.24;62.98;101271.59;5009564;28;103736;-47
2022/05/03 03:09:01;;;;;;;5.43;4.70;;;;;;;14.24;62.96;101268.88;5010581;28;102409;-48
2022/05/03 03:11:34;;;;;;;5.38;4.43;;;;;;;14.24;63.23;101268.88;5010788;28;101957;-48
2022/05/03 03:14:19;;;;;;;5.43;4.68;;;;;;;14.25;63.10;101270.53;4992597;28;102247;-48
2022/05/03 03:16:53;;;;;;;5.53;4.75;;;;;;;14.23;63.02;101276.25;4991091;28;103934;-47
2022/05/03 03:19:34;;;;;;;5.65;4.88;;;;;;;14.24;63.35;101285.28;4990996;28;101900;-46
2022/05/03 03:22:04;;;;;;;5.60;4.72;;;;;;;14.24;63.13;101279.81;4994030;28;102330;-47
2022/05/03 03:24:34;;;;;;;5.60;5.00;;;;;;;14.24;63.18;101285.28;4994998;28;102434;-47
2022/05/03 03:27:04;;;;;;;5.45;4.75;;;;;;;14.24;63.32;101286.09;4993950;28;103817;-46
2022/05/03 03:29:32;;;;;;;5.15;4.65;;;;;;;14.24;63.44;101288.03;5003452;28;102069;-46
2022/05/03 03:32:01;;;;;;;5.38;4.82;;;;;;;14.23;63.31;101289.13;5014293;28;101861;-50
2022/05/03 03:34:29;;;;;;;5.40;4.47;;;;;;;14.23;63.50;101289.94;5015243;28;101954;-47
2022/05/03 03:37:04;;;;;;;5.97;4.63;;;;;;;14.23;63.13;101289.94;5013406;28;103996;-46
2022/05/03 03:39:32;;;;;;;7.03;4.60;;;;;;;14.23;63.10;101289.13;5012987;28;102215;-46
2022/05/03 03:42:01;;;;;;;5.93;4.78;;;;;;;14.23;63.11;101287.22;5014279;28;102379;-47
2022/05/03 03:44:29;;;;;;;;;;;;;;;14.23;63.01;101286.41;5015290;28;102237;-47
2022/05/03 03:46:55;;;;;;;5.72;4.25;;;;;;;14.24;63.28;101285.28;5013175;28;103915;-47
2022/05/03 03:49:22;;;;;;;5.28;4.35;;;;;;;14.24;63.21;101282.56;4998444;28;101940;-47
2022/05/03 03:51:50;;;;;;;5.65;5.05;;;;;;;14.23;63.16;101280.94;5014391;28;102009;-46
2022/05/03 03:54:19;;;;;;;5.43;4.93;;;;;;;14.24;63.20;101277.06;5014700;28;102399;-45
2022/05/03 03:56:47;;;;;;;5.85;4.65;;;;;;;14.24;63.49;101279.81;5013166;28;103976;-48
2022/05/03 03:59:14;;;;;;;5.80;4.70;;;;;;;14.23;63.40;101280.94;5014134;28;102310;-46
2022/05/03 04:01:43;;;;;;;5.88;4.80;;;;;;;14.24;63.53;101282.56;5003671;28;102298;-47
2022/05/03 04:04:12;;;;;;;4.97;4.50;;;;;;;14.23;63.48;101276.25;4996275;28;102569;-47
2022/05/03 04:06:39;;;;;;;6.45;5.05;;;;;;;14.23;63.20;101269.97;5013070;28;103907;-47
2022/05/03 04:09:06;;;;;;;5.13;4.38;;;;;;;14.24;63.27;101279.81;5011487;28;102720;-47
2022/05/03 04:11:43;;;;;;;6.38;4.32;;;;;;;14.23;63.31;101267.22;5012077;28;101945;-48
2022/05/03 04:14:10;;;;;;;5.35;4.75;;;;;;;14.24;63.57;101279.81;4994698;28;101892;-46
2022/05/03 04:16:36;;;;;;;6.03;4.15;;;;;;;14.24;63.28;101279.81;4993339;28;104046;-47
2022/05/03 04:19:03;;;;;;;5.20;4.65;;;;;;;14.24;63.80;101279.81;4996496;28;102368;-48
2022/05/03 04:21:30;;;;;;;5.40;4.70;;;;;;;14.23;63.13;101279.00;4993579;28;101996;-45
2022/05/03 04:23:56;;;;;;;6.45;4.72;;;;;;;14.24;63.44;101277.88;5012297;28;102119;-48
2022/05/03 04:26:24;;;;;;;6.00;4.38;;;;;;;14.24;62.99;101285.28;5012861;28;103914;-47
2022/05/03 04:28:54;;;;;;;6.80;4.57;;;;;;;14.25;63.32;101286.94;5014047;28;102280;-46
2022/05/03 04:31:25;;;;;;;6.05;4.55;;;;;;;14.25;63.60;101285.03;5000883;28;102488;-47
2022/05/03 04:33:52;;;;;;;5.13;4.55;;;;;;;14.25;63.38;101282.28;5014574;28;101989;-47
2022/05/03 04:36:18;;;;;;;5.00;4.28;;;;;;;14.25;63.39;101265.06;5012602;28;103879;-47
2022/05/03 04:38:45;;;;;;;6.32;5.15;;;;;;;14.25;63.57;101265.06;5010017;28;101943;-47
2022/05/03 04:41:11;;;;;;;6.05;4.50;;;;;;;14.25;63.70;101265.06;4999992;28;102070;-50
2022/05/03 04:43:39;;;;;;;5.38;4.78;;;;;;;14.24;63.55;101269.69;5000567;28;102125;-46
2022/05/03 04:46:05;;;;;;;5.18;4.50;;;;;;;14.25;63.42;101259.56;4997132;28;104016;-49
2022/05/03 04:48:33;;;;;;;8.15;4.93;;;;;;;14.25;63.40;101260.38;5011946;28;102452;-48
2022/05/03 04:51:03;;;;;;;6.38;4.70;;;;;;;14.25;63.48;101270.53;4993073;28;101966;-47
2022/05/03 04:53:29;;;;;;;5.00;4.07;;;;;;;14.26;63.54;101272.16;4994179;28;102197;-47
2022/05/03 04:55:58;;;;;;;4.38;3.97;;;;;;;14.25;63.22;101270.53;5001582;28;103924;-47
2022/05/03 04:58:25;;;;;;;6.03;4.75;;;;;;;14.27;63.66;101268.31;5013627;28;102047;-48
2022/05/03 05:00:53;;;;;;;4.65;4.18;;;;;;;14.28;63.43;101264.47;4998781;28;102565;-47
2022/05/03 05:03:21;;;;;;;5.22;4.72;;;;;;;14.29;63.28;101266.13;4998072;28;102598;-48
2022/05/03 05:05:47;;;;;;;6.32;4.53;;;;;;;14.30;63.39;101273.22;5008365;28;104094;-47
2022/05/03 05:08:14;;;;;;;5.25;4.50;;;;;;;14.31;63.38;101264.72;5012576;28;102125;-47
2022/05/03 05:10:41;;;;;;;5.72;4.30;;;;;;;14.33;63.36;101272.66;5004278;28;102666;-48
2022/05/03 05:13:07;;;;;;;6.18;3.92;;;;;;;14.32;63.02;101262.81;4993421;28;102204;-47
2022/05/03 05:15:33;;;;;;;6.35;4.00;;;;;;;14.33;63.13;101261.72;5005998;28;103956;-47
2022/05/03 05:18:16;;;;;;;4.47;3.92;;;;;;;14.34;63.29;101264.16;5017889;28;102731;-46
2022/05/03 05:20:43;;;;;;;4.55;4.05;;;;;;;14.34;63.22;101268.81;5010125;28;102317;-48
2022/05/03 05:23:09;;;;;;;4.07;3.67;;;;;;;14.36;63.27;101274.84;5012694;28;101871;-47
2022/05/03 05:25:36;;;;;;;3.85;3.55;;;;;;;14.36;63.33;101266.63;4991802;28;104022;-48
2022/05/03 05:28:02;;;;;;;5.05;3.88;;;;;;;14.37;63.10;101268.25;5010476;28;102510;-47
2022/05/03 05:30:29;;;;;;;4.15;3.75;;;;;;;14.37;63.43;101276.47;5001039;28;102491;-48
2022/05/03 05:32:56;;;;;;;4.50;3.80;;;;;;;14.36;63.05;101278.38;4994011;28;102615;-47
2022/05/03 05:35:24;;;;;;;4.10;3.47;;;;;;;14.38;62.99;101283.56;4996230;28;103938;-47
2022/05/03 05:37:51;;;;;;;3.90;3.33;;;;;;;14.39;63.41;101274.28;5014415;27;102058;-47
2022/05/03 05:40:17;;;;;;;4.07;3.67;;;;;;;14.39;62.87;101277.00;4993776;27;102201;-47
2022/05/03 05:42:43;;;;;;;5.10;3.38;;;;;;;14.39;63.10;101277.00;5013082;27;102175;-48
2022/05/03 05:45:12;;;;;;;3.63;3.33;;;;;;;14.42;63.02;101279.16;5012565;27;104020;-47
2022/05/03 05:47:42;;;;;;;3.75;3.45;;;;;;;14.41;63.28;101278.34;5012406;28;101865;-47
2022/05/03 05:50:09;;;;;;;3.90;3.50;;;;;;;14.42;63.23;101290.09;4995990;28;102087;-47
2022/05/03 05:55:23;;;;;;;4.28;3.80;;;;;;;14.45;62.85;101295.03;4994215;28;103861;-47
2022/05/03 05:57:50;;;;;;;4.03;3.25;;;;;;;14.45;62.96;101295.03;5007994;28;102188;-48
2022/05/03 06:00:18;;;;;;;4.22;3.35;;;;;;;14.45;63.00;101284.06;4999138;28;102726;-47
2022/05/03 06:02:45;;;;;;;3.90;3.50;;;;;;;14.44;62.86;101287.91;5005667;28;102361;-47
2022/05/03 06:05:11;;;;;;;3.60;3.30;;;;;;;14.45;63.02;101292.28;5005755;28;103937;-46
2022/05/03 06:07:42;;;;;;;4.50;3.65;;;;;;;14.45;63.15;101292.28;5007809;28;101957;-48
2022/05/03 06:10:11;;;;;;;3.80;3.50;;;;;;;14.47;62.63;101292.84;5004244;28;102370;-46
2022/05/03 06:12:38;;;;;;;5.40;4.18;;;;;;;14.47;62.83;101290.09;5007478;28;102216;-47
2022/05/03 06:15:06;;;;;;;4.32;3.65;;;;;;;14.46;63.10;101288.47;5011237;27;104397;-47
2022/05/03 06:17:32;;;;;;;3.92;3.53;;;;;;;14.46;62.89;101282.16;5013783;28;102203;-48
2022/05/03 06:20:02;;;;;;;4.15;3.63;;;;;;;14.46;62.95;101283.00;5001336;28;103965;-45
2022/05/03 06:22:29;;;;;;;3.85;3.45;;;;;;;14.46;62.54;101283.00;4995147;28;103883;-47
2022/05/03 06:24:57;;;;;;;4.43;4.00;;;;;;;14.47;62.75;101284.63;5011517;28;103954;-47
2022/05/03 06:27:23;;;;;;;4.15;3.33;;;;;;;14.47;62.60;101281.06;5010343;28;102485;-47
2022/05/03 06:29:51;;;;;;;4.38;3.78;;;;;;;14.48;62.56;101283.50;5008837;28;102048;-48
2022/05/03 06:32:17;;;;;;;4.10;3.55;;;;;;;14.48;62.89;101283.50;4992728;28;102020;-48
2022/05/03 06:34:44;;;;;;;4.60;3.55;;;;;;;14.49;62.95;101287.88;4991274;28;103894;-49
2022/05/03 06:37:16;;;;;;;3.60;3.10;;;;;;;14.49;62.74;101290.63;5009471;28;102261;-48
2022/05/03 06:39:42;;;;;;;3.83;3.45;;;;;;;14.50;62.77;101289.56;5001941;28;102243;-45
2022/05/03 06:42:10;;;;;;;5.00;3.20;;;;;;;14.50;62.66;101284.09;4997262;28;102391;-46
2022/05/03 06:44:37;;;;;;;3.13;2.70;;;;;;;14.50;62.47;101289.56;4992529;28;104147;-46
2022/05/03 06:47:05;;;;;;;3.15;2.85;;;;;;;14.52;62.46;101284.59;4993537;28;102089;-46
2022/05/03 06:49:31;;;;;;;3.28;2.83;;;;;;;14.52;62.23;101297.50;4994648;28;102468;-47
2022/05/03 06:51:58;;;;;;;3.20;2.90;;;;;;;14.51;62.42;101302.16;5002194;28;102406;-47
2022/05/03 06:54:24;;;;;;;4.65;3.15;;;;;;;14.51;62.53;101302.16;5008892;28;104177;-48
2022/05/03 06:56:53;;;;;;;3.35;3.05;;;;;;;14.51;62.24;101290.38;4998047;28;102295;-48
2022/05/03 06:59:21;;;;;;;3.63;3.20;;;;;;;14.52;62.44;101301.03;5005298;28;102034;-47
2022/05/03 07:01:49;;;;;;;3.20;2.42;;;;;;;14.51;62.17;101296.66;4994561;28;101964;-48
2022/05/03 07:04:16;;;;;;;3.00;2.67;;;;;;;14.52;62.33;101297.50;5027137;28;104523;-47
2022/05/03 07:06:44;;;;;;;3.55;2.85;;;;;;;14.53;62.26;101297.19;5004117;27;102032;-48
2022/05/03 07:09:10;;;;;;;3.13;2.83;;;;;;;14.52;62.22;101295.56;4990777;28;102659;-45
2022/05/03 07:11:38;;;;;;;2.95;2.47;;;;;;;14.54;61.86;101295.28;5008355;28;102603;-47
2022/05/03 07:14:04;;;;;;;2.63;2.28;;;;;;;14.54;61.92;101296.09;5014005;27;104101;-48
2022/05/03 07:16:32;;;;;;;3.03;2.50;;;;;;;14.57;61.79;101302.91;4999370;28;102608;-46
2022/05/03 07:24:30;;;;;;;3.17;2.60;;;;;;;14.58;61.64;101297.19;4992953;28;103940;-48
2022/05/03 07:26:59;;;;;;;3.20;2.78;;;;;;;14.59;62.13;101293.31;5007187;28;102291;-47
2022/05/03 07:29:28;;;;;;;;;;;;;;;14.61;62.07;101299.34;5000481;28;102327;-46
2022/05/03 07:31:55;;;;;;;2.85;2.60;;;;;;;14.62;61.93;101298.25;5003430;28;102196;-45
2022/05/03 07:34:22;;;;;;;2.78;2.40;;;;;;;14.63;61.84;101299.88;4998412;28;103719;-47
2022/05/03 07:36:49;;;;;;;4.20;2.70;;;;;;;14.65;61.19;101296.88;5007831;28;102089;-46
2022/05/03 07:39:15;;;;;;;3.95;2.40;;;;;;;14.65;61.42;101305.91;5002847;28;103213;-46
2022/05/03 07:41:42;;;;;;;3.20;2.60;;;;;;;14.64;61.60;101296.03;5011505;28;102453;-48
2022/05/03 07:44:09;;;;;;;2.65;2.45;;;;;;;14.65;61.57;101303.16;5008027;28;104055;-47
2022/05/03 07:46:35;;;;;;;3.05;2.60;;;;;;;14.65;61.42;101302.34;5006772;28;102054;-46
2022/05/03 07:49:03;;;;;;;3.08;2.28;;;;;;;14.65;61.22;101302.34;5010713;28;101854;-46
2022/05/03 07:51:33;;;;;;;3.28;2.90;;;;;;;14.64;61.35;101307.00;4993626;28;102099;-47
2022/05/03 07:54:01;;;;;;;2.63;2.40;;;;;;;14.64;61.54;101300.69;4999878;28;103916;-45
2022/05/03 07:56:27;;;;;;;4.57;2.67;;;;;;;14.64;61.31;101307.00;4996895;28;102293;-48
2022/05/03 07:58:53;;;;;;;3.58;2.40;;;;;;;14.63;61.21;101305.34;5009174;28;102383;-48
2022/05/03 08:01:20;;;;;;;3.15;2.85;;;;;;;14.64;61.20;101306.16;5010727;28;102130;-47
2022/05/03 08:03:47;;;;;;;3.65;2.60;;;;;;;14.63;61.43;101305.34;5008844;28;104023;-45
2022/05/03 08:06:16;;;;;;;2.47;2.28;;;;;;;14.63;61.66;101294.38;5010268;28;102341;-49
2022/05/03 08:08:42;;;;;;;2.42;2.13;;;;;;;14.64;61.30;101300.69;5011671;28;102455;-47
2022/05/03 08:11:10;;;;;;;2.72;2.40;;;;;;;14.63;61.25;101299.06;5014842;28;102129;-49
2022/05/03 08:13:37;;;;;;;3.00;2.70;;;;;;;14.63;61.26;101288.91;5007247;28;103838;-47
2022/05/03 08:16:16;;;;;;;3.95;2.58;;;;;;;14.62;61.74;101298.25;4997374;28;102003;-46
2022/05/03 08:18:43;;;;;;;2.95;2.70;;;;;;;14.63;61.59;101294.38;5004186;28;101859;-47
2022/05/03 08:21:11;;;;;;;3.00;2.70;;;;;;;14.63;61.49;101288.91;5008679;28;102584;-46
2022/05/03 08:23:41;;;;;;;2.83;2.50;;;;;;;14.62;61.37;101287.28;5011560;28;103900;-45
2022/05/03 08:26:07;;;;;;;2.83;2.60;;;;;;;14.61;61.47;101293.88;5013685;28;102446;-47
2022/05/03 08:28:33;;;;;;;7.22;2.92;;;;;;;14.61;61.32;101299.34;5013324;28;101906;-47
2022/05/03 08:31:00;;;;;;;3.63;2.90;;;;;;;14.61;61.19;101293.88;5013642;28;102512;-48
2022/05/03 08:33:26;;;;;;;3.33;2.60;;;;;;;14.61;60.94;101299.34;5012450;28;104008;-48
2022/05/03 08:35:53;;;;;;;3.08;2.40;;;;;;;14.62;61.45;101289.22;4997414;28;102793;-48
2022/05/03 08:43:51;;;;;;;2.40;2.20;;;;;;;14.62;61.15;101286.47;5004224;28;103305;-47
2022/05/03 08:46:20;;;;;;;3.10;2.80;;;;;;;14.62;60.86;101294.69;5003193;28;102403;-47
2022/05/03 08:48:52;;;;;;;3.33;2.75;;;;;;;14.64;61.21;101278.75;4999566;28;102618;-47
2022/05/03 08:51:22;;;;;;;2.60;2.40;;;;;;;14.64;61.43;101276.88;4998192;28;102611;-47
2022/05/03 08:53:49;;;;;;;2.95;2.72;;;;;;;14.65;60.94;101281.25;4992824;28;104030;-48
2022/05/03 08:56:21;;;;;;;2.95;2.45;;;;;;;14.66;61.17;101277.38;5000097;28;102452;-47
2022/05/03 08:58:48;;;;;;;4.68;2.78;;;;;;;14.66;61.17;101274.66;5012832;28;102323;-48
2022/05/03 09:01:15;;;;;;;4.35;2.65;;;;;;;14.69;60.99;101266.97;5014120;28;102377;-47
2022/05/03 09:03:42;;;;;;;4.43;2.50;;;;;;;14.69;61.16;101264.22;5007136;28;103556;-47
2022/05/03 09:06:08;;;;;;;3.70;2.90;;;;;;;14.69;61.08;101258.75;5012786;28;102383;-47
2022/05/03 09:08:35;;;;;;;2.60;2.30;;;;;;;14.71;61.16;101256.53;4995726;28;101986;-48
2022/05/03 09:11:13;;;;;;;3.47;2.83;;;;;;;14.72;61.03;101263.66;4992444;28;102211;-46
2022/05/03 09:13:42;;;;;;;2.83;2.53;;;;;;;14.73;61.24;101254.34;4993936;28;104090;-45
2022/05/03 09:16:09;;;;;;;;;;;;;;;14.74;61.06;101255.97;4993782;28;102113;-47
2022/05/03 09:18:37;;;;;;;3.72;2.75;;;;;;;14.74;61.02;101255.97;5010714;28;102562;-46
2022/05/03 09:24:01;;;;;;;2.70;2.50;;;;;;;14.75;61.09;101252.13;4999699;28;103975;-46
2022/05/03 09:26:30;;;;;;;2.90;2.60;;;;;;;14.76;60.85;101262.81;5000986;28;102498;-48
2022/05/03 09:29:02;;;;;;;2.22;2.03;;;;;;;14.77;60.80;101249.91;4994977;28;102249;-49
2022/05/03 09:31:30;;;;;;;3.03;2.60;;;;;;;14.76;60.89;101248.28;4992724;28;102446;-47
2022/05/03 09:33:58;;;;;;;;;;;;;;;14.77;60.96;101244.44;4992504;28;103860;-48
2022/05/03 09:36:25;;;;;;;2.40;2.20;;;;;;;14.77;60.54;101250.72;4992685;28;102301;-47
2022/05/03 09:38:55;;;;;;;2.75;2.53;;;;;;;14.77;60.57;101244.44;4992752;28;102483;-46
2022/05/03 09:41:21;;;;;;;2.88;2.67;;;;;;;14.79;60.69;101242.25;4992860;28;102135;-48
2022/05/03 09:44:03;;;;;;;2.60;2.40;;;;;;;14.79;60.85;101237.56;5014260;28;104103;-47
2022/05/03 09:46:50;;;;;;;3.17;2.50;;;;;;;14.78;60.66;101229.63;5004260;28;103016;-47
2022/05/03 09:49:20;;;;;;;2.97;2.20;;;;;;;14.78;60.77;101226.88;5010873;28;101905;-48
2022/05/03 09:51:47;;;;;;;2.58;2.33;;;;;;;14.79;60.51;101228.53;5004741;28;102544;-47
2022/05/03 09:54:13;;;;;;;3.22;2.50;;;;;;;14.81;60.43;101234.53;5009234;28;103847;-47
2022/05/03 09:56:42;;;;;;;3.38;2.83;;;;;;;14.80;60.35;101236.47;5006380;28;104439;-48
2022/05/03 09:59:10;;;;;;;4.45;2.20;;;;;;;14.80;60.48;101232.91;5010321;28;102424;-48
2022/05/03 10:01:38;;;;;;;3.38;2.70;;;;;;;14.79;60.58;101220.31;5007338;28;102010;-48
2022/05/03 10:04:06;;;;;;;2.75;2.53;;;;;;;14.79;60.75;101225.81;5009181;28;103912;-47
2022/05/03 10:06:36;;;;;;;3.95;2.40;;;;;;;14.79;60.76;101217.59;5011139;28;102424;-48
2022/05/03 10:09:04;;;;;;;2.20;2.10;;;;;;;14.80;60.75;101221.94;5018115;28;102266;-47
2022/05/03 10:11:34;;;;;;;3.90;2.70;;;;;;;14.79;60.52;101209.38;4995552;28;102979;-47
2022/05/03 10:14:01;;;;;;;2.72;2.38;;;;;;;14.80;60.67;101219.22;5004902;28;104093;-47
2022/05/03 10:22:04;;;;;;;2.88;2.33;;;;;;;14.80;60.47;101202.78;5008200;28;102726;-48
2022/05/03 10:24:51;;;;;;;2.30;2.10;;;;;;;14.78;60.74;101202.22;4992844;28;104066;-46
2022/05/03 10:27:23;;;;;;;2.90;2.47;;;;;;;14.77;60.82;101204.16;4991810;28;101999;-46
2022/05/03 10:30:13;;;;;;;2.15;1.85;;;;;;;14.77;60.30;101203.34;4991646;28;102293;-47
2022/05/03 10:32:42;;;;;;;2.30;2.10;;;;;;;14.77;60.68;101208.81;5012629;28;102218;-48
2022/05/03 10:35:36;;;;;;;2.83;2.17;;;;;;;14.76;60.66;101208.00;4994767;28;103871;-47
2022/05/03 10:38:07;;;;;;;2.50;2.20;;;;;;;14.75;60.75;101197.31;5011082;28;102606;-48
2022/05/03 10:40:39;;;;;;;2.53;2.20;;;;;;;14.76;60.52;101204.47;5007487;28;102569;-47
2022/05/03 10:43:09;;;;;;;2.50;2.30;;;;;;;14.75;60.84;101200.06;5009655;28;102477;-46
2022/05/03 10:45:51;;;;;;;2.40;2.17;;;;;;;14.75;60.66;101205.53;5000828;28;103992;-47
2022/05/03 10:48:29;;;;;;;2.10;1.90;;;;;;;14.74;60.44;101195.69;5007549;28;102281;-48
2022/05/03 10:50:58;;;;;;;2.42;2.20;;;;;;;14.74;60.44;101195.69;4998035;28;102012;-48
2022/05/03 10:53:30;;;;;;;2.25;2.05;;;;;;;14.74;60.75;101191.03;4992534;28;102151;-48
2022/05/03 10:56:16;;;;;;;2.40;2.20;;;;;;;14.73;60.65;101203.09;5005678;28;103884;-47
2022/05/03 10:58:46;;;;;;;2.92;2.05;;;;;;;14.74;60.56;101195.69;4991710;28;101898;-47
2022/05/03 11:01:19;;;;;;;3.15;2.15;;;;;;;14.72;60.83;101187.78;5006214;28;102489;-47
2022/05/03 11:04:10;;;;;;;2.67;2.30;;;;;;;14.74;60.47;101195.69;5011855;28;102210;-47
2022/05/03 11:06:47;;;;;;;3.90;2.03;;;;;;;14.72;60.07;101192.44;5001454;28;104036;-47
2022/05/03 11:09:23;;;;;;;2.50;2.30;;;;;;;14.72;60.30;101187.78;5009961;28;102208;-48
2022/05/03 11:12:06;;;;;;;2.10;1.90;;;;;;;14.72;60.07;101186.97;4991244;28;101856;-48
2022/05/03 11:14:54;;;;;;;2.15;1.95;;;;;;;14.71;60.06;101177.09;5001340;28;102572;-50
2022/05/03 11:17:22;;;;;;;2.05;1.85;;;;;;;14.71;60.08;101179.81;5006613;28;103864;-47
2022/05/03 11:19:55;;;;;;;2.55;2.00;;;;;;;14.70;60.29;101178.19;5011434;28;102038;-46
2022/05/03 11:22:25;;;;;;;2.00;1.77;;;;;;;14.70;60.16;101178.19;5011047;28;102348;-45
2022/05/03 11:24:54;;;;;;;2.80;2.60;;;;;;;14.68;59.63;101181.25;4996845;28;102035;-48
2022/05/03 11:27:22;;;;;;;2.77;2.30;;;;;;;14.69;60.08;101165.63;5007433;28;103852;-47
2022/05/03 11:29:51;;;;;;;2.45;2.20;;;;;;;14.70;60.06;101169.97;5011367;28;102209;-47
2022/05/03 11:32:27;;;;;;;3.08;2.40;;;;;;;14.68;60.17;101172.19;5010423;28;102593;-47
2022/05/03 11:35:01;;;;;;;1.75;1.65;;;;;;;14.68;59.87;101169.44;5011213;28;102130;-46
2022/05/03 11:37:27;;;;;;;2.22;1.77;;;;;;;14.68;59.82;101161.22;5010600;28;103988;-48
2022/05/03 11:40:01;;;;;;;2.15;2.00;;;;;;;14.67;59.73;101165.88;5010635;28;102329;-48
2022/05/03 11:42:36;;;;;;;2.30;2.10;;;;;;;14.66;59.91;101162.34;5001293;28;102503;-46
2022/05/03 11:45:03;;;;;;;2.78;2.40;;;;;;;14.66;59.89;101154.13;5015530;28;102495;-49
2022/05/03 11:47:33;;;;;;;2.13;2.00;;;;;;;14.66;59.96;101153.31;5000377;28;104048;-47
2022/05/03 11:50:02;;;;;;;3.30;2.20;;;;;;;14.65;59.90;101149.75;4997774;28;101834;-47
2022/05/03 11:58:02;;;;;;;3.03;2.22;;;;;;;14.65;59.93;101149.75;4998428;28;103878;-46
2022/05/03 12:00:29;;;;;;;2.70;2.10;;;;;;;14.65;59.68;101144.28;5011721;28;102245;-47
2022/05/03 12:03:00;;;;;;;2.85;2.30;;;;;;;14.65;59.39;101144.28;5010810;28;102024;-47
2022/05/03 12:05:28;;;;;;;2.67;2.47;;;;;;;14.64;59.89;101136.31;5004965;28;104215;-48
2022/05/03 12:07:57;;;;;;;3.67;2.10;;;;;;;14.63;59.46;101146.47;5001253;28;103776;-48
2022/05/03 12:10:26;;;;;;;3.03;1.90;;;;;;;14.63;59.56;101140.19;5006792;28;102593;-48
2022/05/03 12:13:08;;;;;;;2.22;2.00;;;;;;;14.63;59.69;101135.50;5009013;28;102591;-48